Latest Coastal Weather Observations for Port Kembla Harbour

IDN60701

Issued at 4:02 pm EST Tuesday 4 August 2020 (issued every 10 minutes, with the page automatically refreshed every 10 minutes)

About coastal observations | Map of coastal stations | Coastal observations for NSW | Marine services | Other Formats
Station Details ID: 068253 Name: PORT KEMBLA NTC AWS Lat: -34.47 Lon: 150.91 Height: 0.0 m
Data from the previous 72 hours. | See also: Recent months for locations in New South Wales
Date/Time
EST
Wind Sea
Height
m
Swell Vis
km
Cloud Weather Temp
°C
Press
hPa
Rain since
9am
mm
Dir  Spd
kts
Gust
kts
Height
m
Period
s
Dir
04/04:00pm W 12 18 - - - - - - - 18.5 1007.7 -
04/03:30pm W 19 26 - - - - - - - 19.4 1007.3 -
04/03:25pm W 18 26 - - - - - - - 19.6 1007.4 -
04/03:00pm WSW 12 17 - - - - - - - 20.3 1007.0 -
04/02:30pm W 17 25 - - - - - - - 20.5 1006.8 -
04/02:07pm W 18 28 - - - - - - - 20.4 1006.8 -
04/02:00pm W 17 23 - - - - - - - 20.7 1006.8 -
04/01:51pm WNW 10 23 - - - - - - - 20.5 1006.8 -
04/01:30pm N 6 11 - - - - - - - 18.5 1006.8 -
04/01:00pm N 9 15 - - - - - - - 17.6 1006.9 -
04/12:30pm N 8 12 - - - - - - - 18.3 1007.2 -
04/12:00pm N 9 16 - - - - - - - 17.6 1007.6 -
04/11:30am N 12 16 - - - - - - - 17.1 1008.2 -
04/11:00am NNE 11 14 - - - - - - - 16.1 1008.7 -
04/10:30am NNE 11 14 - - - - - - - 15.9 1009.4 -
04/10:00am NE 8 11 - - - - - - - 15.7 1009.9 -
04/09:30am NE 8 10 - - - - - - - 15.5 1010.3 -
04/09:00am NNE 5 7 - - - - - - - 15.5 1010.5 -
04/08:30am NNE 6 9 - - - - - - - 15.2 1010.6 -
04/08:00am NNW 5 8 - - - - - - - 14.7 1010.7 -
04/07:30am NNW 3 6 - - - - - - - 14.8 1010.9 -
04/07:00am N 6 9 - - - - - - - 14.7 1010.9 -
04/06:30am NNW 4 9 - - - - - - - 14.6 1010.8 -
04/06:00am N 4 11 - - - - - - - 15.0 1011.0 -
04/05:30am NNE 7 9 - - - - - - - 15.2 1011.1 -
04/05:00am NNW 6 11 - - - - - - - 15.6 1011.0 -
04/04:30am N 8 13 - - - - - - - 15.8 1011.1 -
04/04:00am NNW 1 4 - - - - - - - 14.9 1011.3 -
04/03:30am WNW 5 12 - - - - - - - 15.1 1011.3 -
04/03:00am N 2 5 - - - - - - - 15.9 1011.5 -
04/02:30am WNW 1 4 - - - - - - - 15.1 1012.0 -
04/02:00am NNE 2 4 - - - - - - - 15.6 1012.3 -
04/01:30am W 5 8 - - - - - - - 16.0 1012.6 -
04/01:00am WSW 7 10 - - - - - - - 16.5 1012.9 -
04/12:30am W 6 7 - - - - - - - 16.1 1013.0 -
04/12:00am WNW 5 9 - - - - - - - 16.7 1013.2 -
 
Date/Time
EST
Wind Sea
Height
m
Swell Vis
km
Cloud Weather Temp
°C
Press
hPa
Rain since
9am
mm
Dir  Spd
kts
Gust
kts
Height
m
Period
s
Dir
03/11:30pm WNW 5 10 - - - - - - - 16.7 1013.2 -
03/11:00pm WNW 10 14 - - - - - - - 17.3 1013.4 -
03/10:30pm WNW 7 10 - - - - - - - 16.7 1013.6 -
03/10:00pm WNW 7 10 - - - - - - - 16.9 1013.6 -
03/09:30pm W 6 10 - - - - - - - 16.4 1013.8 -
03/09:00pm WNW 7 9 - - - - - - - 17.1 1013.7 -
03/08:30pm W 4 5 - - - - - - - 17.0 1013.8 -
03/08:00pm W 7 11 - - - - - - - 17.4 1013.9 -
03/07:30pm W 10 13 - - - - - - - 17.7 1013.9 -
03/07:00pm W 11 17 - - - - - - - 17.9 1013.8 -
03/06:30pm W 6 10 - - - - - - - 18.0 1013.9 -
03/06:00pm W 9 13 - - - - - - - 18.4 1013.8 -
03/05:30pm W 5 7 - - - - - - - 18.9 1013.6 -
03/05:00pm WNW 10 13 - - - - - - - 19.8 1013.5 -
03/04:30pm W 9 12 - - - - - - - 20.4 1013.2 -
03/04:00pm SE 3 4 - - - - - - - 19.2 1013.1 -
03/03:30pm ESE 3 5 - - - - - - - 18.9 1013.1 -
03/03:00pm ENE 2 3 - - - - - - - 19.3 1013.3 -
03/02:30pm E 4 7 - - - - - - - 18.7 1013.6 -
03/02:00pm ESE 5 7 - - - - - - - 18.3 1013.8 -
03/01:30pm ENE 3 5 - - - - - - - 18.7 1013.9 -
03/01:00pm NE 2 5 - - - - - - - 18.7 1014.3 -
03/12:30pm WNW 6 9 - - - - - - - 20.3 1015.0 -
03/12:00pm WNW 5 10 - - - - - - - 19.4 1015.7 -
03/11:30am WNW 7 10 - - - - - - - 18.5 1016.3 -
03/11:00am WNW 9 13 - - - - - - - 18.2 1017.1 -
03/10:30am WNW 9 15 - - - - - - - 17.1 1017.6 -
03/10:00am WNW 11 16 - - - - - - - 16.7 1017.9 -
03/09:30am NNW 9 11 - - - - - - - 16.1 1018.3 -
03/09:00am NW 8 11 - - - - - - - 16.1 1018.6 -
03/08:30am NNW 6 9 - - - - - - - 15.7 1018.7 -
03/08:00am NW 2 5 - - - - - - - 13.0 1018.9 -
03/07:30am WSW 2 3 - - - - - - - 10.7 1018.8 -
03/07:00am WSW 3 4 - - - - - - - 11.2 1018.9 -
03/06:30am WSW 2 4 - - - - - - - 10.8 1018.7 -
03/06:00am WSW 4 5 - - - - - - - 10.1 1018.7 -
03/05:30am WSW 4 6 - - - - - - - 10.6 1018.5 -
03/05:00am WSW 4 5 - - - - - - - 10.2 1018.5 -
03/04:30am W 3 4 - - - - - - - 10.3 1018.5 -
03/04:00am WSW 3 4 - - - - - - - 10.8 1018.9 -
03/03:30am WSW 4 5 - - - - - - - 10.5 1019.2 -
03/03:00am WSW 4 5 - - - - - - - 10.6 1019.5 -
03/02:30am WSW 3 4 - - - - - - - 11.3 1019.9 -
03/02:00am WSW 3 4 - - - - - - - 11.3 1020.2 -
03/01:30am WSW 3 5 - - - - - - - 11.2 1020.6 -
03/01:00am WSW 4 5 - - - - - - - 10.7 1021.0 -
03/12:30am WSW 3 3 - - - - - - - 11.6 1021.2 -
03/12:00am WSW 3 4 - - - - - - - 11.2 1021.5 -
 
Date/Time
EST
Wind Sea
Height
m
Swell Vis
km
Cloud Weather Temp
°C
Press
hPa
Rain since
9am
mm
Dir  Spd
kts
Gust
kts
Height
m
Period
s
Dir
02/11:30pm SW 3 4 - - - - - - - 11.2 1021.8 -
02/11:00pm SW 3 5 - - - - - - - 11.4 1021.9 -
02/10:30pm WSW 3 5 - - - - - - - 11.4 1022.1 -
02/10:00pm SW 3 5 - - - - - - - 11.4 1022.1 -
02/09:30pm W 3 4 - - - - - - - 12.1 1022.2 -
02/09:00pm WSW 3 5 - - - - - - - 12.1 1022.4 -
02/08:30pm WSW 3 4 - - - - - - - 12.6 1022.5 -
02/08:00pm WSW 4 5 - - - - - - - 12.5 1022.6 -
02/07:30pm WSW 2 3 - - - - - - - 13.3 1022.7 -
02/07:00pm WNW 2 3 - - - - - - - 14.4 1022.5 -
02/06:30pm NNE 3 5 - - - - - - - 15.6 1022.4 -
02/06:00pm NNE 3 4 - - - - - - - 15.6 1022.3 -
02/05:30pm NE 3 4 - - - - - - - 15.7 1022.3 -
02/05:00pm NE 2 3 - - - - - - - 15.8 1022.2 -
02/04:30pm NE 3 4 - - - - - - - 15.9 1022.2 -
02/04:00pm ENE 2 4 - - - - - - - 15.9 1022.2 -
02/03:30pm ENE 3 4 - - - - - - - 15.8 1022.2 -
02/03:00pm E 2 4 - - - - - - - 15.9 1022.2 -
02/02:30pm ESE 4 5 - - - - - - - 15.8 1022.2 -
02/02:00pm ESE 4 5 - - - - - - - 15.8 1022.3 -
02/01:30pm ESE 4 7 - - - - - - - 15.9 1022.5 -
02/01:00pm ESE 5 8 - - - - - - - 15.7 1022.8 -
02/12:30pm ESE 4 6 - - - - - - - 15.7 1023.2 -
02/12:00pm E 3 4 - - - - - - - 15.7 1023.5 -
02/11:30am ESE 3 5 - - - - - - - 15.4 1023.8 -
02/11:00am E 2 3 - - - - - - - 15.5 1024.2 -
02/10:30am E 2 3 - - - - - - - 15.5 1024.6 -
02/10:00am NNE 2 3 - - - - - - - 16.5 1024.7 -
02/09:30am NW 2 4 - - - - - - - 15.7 1024.7 -
02/09:00am W 3 4 - - - - - - - 14.3 1024.6 -
02/08:30am W 4 6 - - - - - - - 12.8 1024.5 -
02/08:00am W 4 5 - - - - - - - 12.2 1024.3 -
02/07:30am WSW 3 5 - - - - - - - 10.9 1024.1 -
02/07:00am WSW 3 5 - - - - - - - 10.2 1023.9 -
02/06:30am WSW 4 5 - - - - - - - 10.2 1023.6 -
02/06:00am W 3 5 - - - - - - - 10.4 1023.3 -
02/05:30am WSW 3 4 - - - - - - - 10.7 1023.0 -
02/05:00am WSW 3 4 - - - - - - - 11.2 1022.7 -
02/04:30am WSW 4 6 - - - - - - - 11.2 1022.5 -
02/04:00am WSW 4 5 - - - - - - - 11.4 1022.4 -
02/03:30am WSW 4 6 - - - - - - - 11.3 1022.3 -
02/03:00am WSW 4 5 - - - - - - - 11.2 1022.4 -
02/02:30am WSW 6 6 - - - - - - - 11.8 1022.6 -
02/02:00am WSW 4 5 - - - - - - - 11.4 1022.8 -
02/01:30am WSW 5 6 - - - - - - - 11.7 1023.0 -
02/01:00am WSW 4 5 - - - - - - - 12.3 1022.9 -
02/12:30am WSW 5 7 - - - - - - - 13.0 1023.2 -
02/12:00am WSW 6 8 - - - - - - - 13.1 1023.3 -
 
Date/Time
EST
Wind Sea
Height
m
Swell Vis
km
Cloud Weather Temp
°C
Press
hPa
Rain since
9am
mm
Dir  Spd
kts
Gust
kts
Height
m
Period
s
Dir
01/11:30pm WSW 4 5 - - - - - - - 12.4 1023.3 -
01/11:00pm W 5 7 - - - - - - - 13.4 1023.4 -
01/10:30pm W 5 6 - - - - - - - 13.4 1023.6 -
01/10:00pm WSW 5 6 - - - - - - - 13.4 1023.6 -
01/09:30pm WSW 2 4 - - - - - - - 12.9 1023.5 -
01/09:00pm WSW 2 3 - - - - - - - 13.0 1023.6 -
01/08:30pm SW 3 3 - - - - - - - 14.0 1023.6 -
01/08:00pm WSW 2 2 - - - - - - - 13.9 1023.4 -
01/07:30pm CALM 0 1 - - - - - - - 14.1 1023.3 -
01/07:00pm WNW 5 6 - - - - - - - 14.8 1023.1 -
01/06:30pm NW 4 5 - - - - - - - 15.6 1022.8 -
01/06:00pm NE 7 10 - - - - - - - 16.5 1022.6 -
01/05:30pm NNE 8 11 - - - - - - - 16.5 1022.4 -
01/05:00pm NE 9 13 - - - - - - - 16.3 1022.2 -
01/04:30pm NE 9 12 - - - - - - - 16.9 1021.9 -

Other formats

Comma delimited format used in spreadsheet applications
http://www.bom.gov.au/fwo/IDN60701/IDN60701.95745.axf

JavaScript Object Notation format (JSON) in row-major order
http://www.bom.gov.au/fwo/IDN60701/IDN60701.95745.json

Data quality

Most of these data are generated automatically and are frequently updated. Quality checks on data are not normally performed. It is possible for incorrect values to appear. Refer to information at About Latest Weather Observations and please check the disclaimer before using these data.